Portada
METAR-TAF:

METAR-TAF

Aeropuertos :

Aeropuerto de Ängelholm-Helsingborg

Helsingborg, Suecia

latitud: 56-17-46N, longitud: 012-50-50E, altitud: 21 m

Observación

El informe se hizo hace 20 minutos, a las 05:50 UTC
Viento 3 kt del sureste
Temperatura -4°C
Humedad 93%
Presión 998 hPa
Visibilidad 10 km o más
Cielo nuboso a una altura de 3900 ft

METAR: ESTA 270550Z 14003KT 9999 BKN039 M04/M05 Q0998

Hora: 07:10 (06:10 UTC)

Pronóstico

El informe se hizo hace 1 hora y 9 minutos, a las 05:01 UTC
Pronóstico válido del 27 a las 06 UTC al 27 a las 15 UTC
Viento 6 kt del sureste
Visibilidad 10 km o más
Cielo nuboso a una altura de 3000 ft

TAF: ESTA 270501Z 2706/2715 13006KT 9999 BKN030

Observaciones y pronósticos meteorológicos de más de 4000 aeropuertos (mensajes METAR y TAF).

Los puntos amarillos y rojos representan las estaciones disponibles.

Ponga el ratón en el punto deseado para ver el nombre de la estación.

Haga clic para ver las observaciones y los pronósticos meteorológicos.

Para cambiar el mapa : haga clic en los botones verdes con una cruz de color negro para hacer un zoom, en el botón verde con un guión para alejar o en las flechas verdes para mapas adyacentes.


METAR-TAF: